createdAt,value
2018-02-17T00:02:10.674Z,0.70
2018-02-17T00:04:39.940Z,0.60
2018-02-17T00:07:08.309Z,0.70
2018-02-17T00:09:36.923Z,0.70
2018-02-17T00:12:05.950Z,0.70
2018-02-17T00:14:34.213Z,3.27
2018-02-17T00:17:02.574Z,2.67
2018-02-17T00:19:31.078Z,5.73
2018-02-17T00:21:59.378Z,2.77
2018-02-17T00:24:27.697Z,0.77
2018-02-17T00:26:56.079Z,1.33
2018-02-17T00:29:24.449Z,0.70
2018-02-17T00:31:52.760Z,4.72
2018-02-17T00:34:21.149Z,0.60
2018-02-17T00:36:50.192Z,0.70
2018-02-17T00:39:18.454Z,0.60
2018-02-17T00:41:47.188Z,0.70
2018-02-17T00:44:15.459Z,1.90
2018-02-17T00:46:43.732Z,0.80
2018-02-17T00:49:12.011Z,0.60
2018-02-17T00:51:40.292Z,0.60
2018-02-17T00:54:08.586Z,1.50
2018-02-17T00:56:36.863Z,0.70
2018-02-17T00:59:05.179Z,0.70
2018-02-17T01:01:33.449Z,0.70
2018-02-17T01:04:02.585Z,3.57
2018-02-17T01:06:34.713Z,0.80
2018-02-17T01:09:04.137Z,0.90
2018-02-17T01:11:32.419Z,0.93
2018-02-17T01:14:00.779Z,4.07
2018-02-17T01:16:29.088Z,0.70
2018-02-17T01:18:57.367Z,1.00
2018-02-17T01:21:25.664Z,1.20
2018-02-17T01:23:53.936Z,1.57
2018-02-17T01:26:22.989Z,2.83
2018-02-17T01:28:52.028Z,0.83
2018-02-17T01:31:20.327Z,0.85
2018-02-17T01:33:48.595Z,1.00
2018-02-17T01:36:17.292Z,2.87
2018-02-17T01:38:45.587Z,0.80
2018-02-17T01:41:13.856Z,3.80
2018-02-17T01:43:42.154Z,0.70
2018-02-17T01:46:11.202Z,0.90
2018-02-17T01:48:39.813Z,0.60
2018-02-17T01:51:08.092Z,0.70
2018-02-17T01:53:36.389Z,0.70
2018-02-17T01:56:04.669Z,1.00
2018-02-17T01:58:32.955Z,3.10
2018-02-17T02:01:02.090Z,1.30
2018-02-17T02:03:30.365Z,1.30
2018-02-17T02:05:58.646Z,1.27
2018-02-17T02:08:26.911Z,20.13
2018-02-17T02:10:55.494Z,6.57
2018-02-17T02:13:24.513Z,0.70
2018-02-17T02:15:52.782Z,0.68
2018-02-17T02:18:21.066Z,2.30
2018-02-17T02:20:49.334Z,0.60
2018-02-17T02:23:17.692Z,0.60
2018-02-17T02:25:46.402Z,0.90
2018-02-17T02:28:15.848Z,0.60
2018-02-17T02:30:44.186Z,3.50
2018-02-17T02:33:12.530Z,0.75
2018-02-17T02:35:41.586Z,1.12
2018-02-17T02:38:09.856Z,0.67
2018-02-17T02:40:38.503Z,1.50
2018-02-17T02:43:07.524Z,0.77
2018-02-17T02:45:36.014Z,0.60
2018-02-17T02:48:04.298Z,0.97
2018-02-17T02:50:33.569Z,0.70
2018-02-17T02:53:02.614Z,0.73
2018-02-17T02:55:31.327Z,0.70
2018-02-17T02:58:00.399Z,0.70
2018-02-17T03:00:28.726Z,2.37
2018-02-17T03:02:58.072Z,4.20
2018-02-17T03:05:26.352Z,0.75
2018-02-17T03:07:54.622Z,0.70
2018-02-17T03:10:24.623Z,0.70
2018-02-17T03:12:52.983Z,0.60
2018-02-17T03:15:21.331Z,0.75
2018-02-17T03:17:49.657Z,4.65
2018-02-17T03:20:18.110Z,1.02
2018-02-17T03:22:47.133Z,0.90
2018-02-17T03:25:15.420Z,0.90
2018-02-17T03:27:43.709Z,0.70
2018-02-17T03:30:12.293Z,0.80
2018-02-17T03:32:40.558Z,1.85
2018-02-17T03:35:08.930Z,4.32
2018-02-17T03:37:37.419Z,1.12
2018-02-17T03:40:05.673Z,0.60
2018-02-17T03:42:33.999Z,0.80
2018-02-17T03:45:04.215Z,0.90
2018-02-17T03:47:32.524Z,0.90
2018-02-17T03:50:01.550Z,0.90
2018-02-17T03:52:29.841Z,0.80
2018-02-17T03:54:58.520Z,0.90
2018-02-17T03:57:27.069Z,2.50
2018-02-17T03:59:56.445Z,0.90
2018-02-17T04:02:24.717Z,0.75
2018-02-17T04:04:53.032Z,1.27
2018-02-17T04:07:22.562Z,4.00
2018-02-17T04:09:50.975Z,0.80
2018-02-17T04:12:19.223Z,0.77
2018-02-17T04:14:47.497Z,0.70
2018-02-17T04:17:15.778Z,0.73
2018-02-17T04:19:45.127Z,0.60
2018-02-17T04:22:13.387Z,0.70
2018-02-17T04:24:42.349Z,0.80
2018-02-17T04:27:10.607Z,0.70
2018-02-17T04:29:39.637Z,2.07
2018-02-17T04:32:07.939Z,0.80
2018-02-17T04:34:36.825Z,0.70
2018-02-17T04:37:05.174Z,0.85
2018-02-17T04:39:45.323Z,3.00
2018-02-17T04:55:47.465Z,1.37
2018-02-17T04:58:23.277Z,0.60
2018-02-17T05:00:52.342Z,0.70
2018-02-17T05:03:27.915Z,0.70
2018-02-17T05:06:11.469Z,0.75
2018-02-17T05:08:43.130Z,0.70
2018-02-17T05:11:11.408Z,0.70
2018-02-17T05:13:39.788Z,0.80
2018-02-17T05:16:22.982Z,0.90
2018-02-17T05:18:55.851Z,0.80
2018-02-17T05:21:25.241Z,2.47
2018-02-17T05:23:57.677Z,0.90
2018-02-17T05:26:32.024Z,0.77
2018-02-17T05:29:04.163Z,1.00
2018-02-17T05:31:33.216Z,0.70
2018-02-17T05:34:05.364Z,3.90
2018-02-17T05:36:36.021Z,0.60
2018-02-17T05:39:05.363Z,0.60
2018-02-17T05:54:57.222Z,0.70
2018-02-17T05:57:25.506Z,0.75
2018-02-17T05:59:53.867Z,4.00
2018-02-17T06:02:22.197Z,1.20
2018-02-17T06:04:50.487Z,0.73
2018-02-17T06:07:19.194Z,0.60
2018-02-17T06:09:47.472Z,2.10
2018-02-17T06:12:16.527Z,0.75
2018-02-17T06:14:44.797Z,0.60
2018-02-17T06:17:13.404Z,0.80
2018-02-17T06:19:41.834Z,0.70
2018-02-17T06:22:10.339Z,1.20
2018-02-17T06:24:38.737Z,0.80
2018-02-17T06:27:08.392Z,0.70
2018-02-17T06:29:36.704Z,0.77
2018-02-17T06:32:05.066Z,3.25
2018-02-17T06:34:33.373Z,0.80
2018-02-17T06:37:01.663Z,0.80
2018-02-17T06:39:30.206Z,0.70
2018-02-17T06:41:59.416Z,0.73
2018-02-17T06:44:27.680Z,0.83
2018-02-17T06:46:56.371Z,0.70
2018-02-17T06:49:24.730Z,0.80
2018-02-17T06:51:53.781Z,1.25
2018-02-17T06:54:22.096Z,1.90
2018-02-17T06:56:50.955Z,1.55
2018-02-17T06:59:19.276Z,0.70
2018-02-17T07:01:48.378Z,0.90
2018-02-17T07:04:17.514Z,2.57
2018-02-17T07:06:45.921Z,0.80
2018-02-17T07:09:14.264Z,0.70
2018-02-17T07:11:42.550Z,1.37
2018-02-17T07:14:10.911Z,1.87
2018-02-17T07:16:39.262Z,13.48
2018-02-17T07:19:08.083Z,0.90
2018-02-17T07:21:36.371Z,0.95
2018-02-17T07:24:04.660Z,2.83
2018-02-17T07:26:33.067Z,2.62
2018-02-17T07:29:01.391Z,0.80
2018-02-17T07:31:31.424Z,0.77
2018-02-17T07:33:59.712Z,1.53
2018-02-17T07:36:28.396Z,2.60
2018-02-17T07:38:56.684Z,0.80
2018-02-17T07:41:25.011Z,0.70
2018-02-17T07:49:56.706Z,0.88
2018-02-17T07:52:25.307Z,4.90
2018-02-17T07:54:53.627Z,1.33
2018-02-17T07:57:22.692Z,1.05
2018-02-17T07:59:51.025Z,1.63
2018-02-17T08:02:19.417Z,1.00
2018-02-17T08:04:47.748Z,0.90
2018-02-17T08:07:16.041Z,0.75
2018-02-17T08:09:44.365Z,0.70
2018-02-17T08:12:12.626Z,0.80
2018-02-17T08:14:40.913Z,0.80
2018-02-17T08:17:10.018Z,0.70
2018-02-17T08:19:39.492Z,0.80
2018-02-17T08:22:07.796Z,0.73
2018-02-17T08:24:36.206Z,4.50
2018-02-17T08:27:04.496Z,1.52
2018-02-17T08:29:32.850Z,1.53
2018-02-17T08:32:01.222Z,0.80
2018-02-17T08:34:30.247Z,0.70
2018-02-17T08:36:58.749Z,1.37
2018-02-17T08:39:27.156Z,1.00
2018-02-17T08:41:55.425Z,1.03
2018-02-17T08:44:23.798Z,0.90
2018-02-17T08:46:53.055Z,1.07
2018-02-17T08:49:21.364Z,1.97
2018-02-17T08:51:49.732Z,1.20
2018-02-17T08:54:18.018Z,0.70
2018-02-17T08:56:46.293Z,4.23
2018-02-17T08:59:14.605Z,1.10
2018-02-17T09:01:42.905Z,0.70
2018-02-17T09:04:11.215Z,2.50
2018-02-17T09:06:39.481Z,1.20
2018-02-17T09:09:08.334Z,1.10
2018-02-17T09:11:36.630Z,1.17
2018-02-17T09:14:05.771Z,2.60
2018-02-17T09:16:34.666Z,1.73
2018-02-17T09:19:02.947Z,2.10
2018-02-17T09:21:31.259Z,1.93
2018-02-17T09:23:59.536Z,2.70
2018-02-17T09:26:27.842Z,0.70
2018-02-17T09:28:56.899Z,11.50
2018-02-17T09:31:25.193Z,0.70
2018-02-17T09:33:53.535Z,5.10
2018-02-17T09:36:22.248Z,0.90
2018-02-17T09:38:50.515Z,0.60
2018-02-17T09:41:18.859Z,1.80
2018-02-17T09:43:47.134Z,0.70
2018-02-17T09:46:15.489Z,0.70
2018-02-17T09:48:43.795Z,2.83
2018-02-17T09:51:12.070Z,1.07
2018-02-17T09:53:40.732Z,0.80
2018-02-17T09:56:09.750Z,4.10
2018-02-17T09:58:38.056Z,3.07
2018-02-17T10:01:06.389Z,5.00
2018-02-17T10:03:35.467Z,2.10
2018-02-17T10:06:03.769Z,0.90
2018-02-17T10:08:32.893Z,5.50
2018-02-17T10:11:01.297Z,0.70
2018-02-17T10:13:29.964Z,0.70
2018-02-17T10:15:59.725Z,1.00
2018-02-17T10:18:28.460Z,12.33
2018-02-17T10:20:56.970Z,24.10
2018-02-17T10:23:25.410Z,45.93
2018-02-17T10:25:54.018Z,29.87
2018-02-17T10:28:22.559Z,27.57
2018-02-17T10:30:51.139Z,24.50
2018-02-17T10:33:19.743Z,23.00
2018-02-17T10:35:48.391Z,26.03
2018-02-17T10:38:17.393Z,23.53
2018-02-17T10:40:45.724Z,26.53
2018-02-17T10:43:14.010Z,28.03
2018-02-17T10:45:42.312Z,25.17
2018-02-17T10:48:10.605Z,30.30
2018-02-17T10:50:38.929Z,30.20
2018-02-17T10:53:07.301Z,38.77
2018-02-17T10:55:37.390Z,25.40
2018-02-17T10:58:06.439Z,22.97
2018-02-17T11:00:36.017Z,28.87
2018-02-17T11:03:05.105Z,35.07
2018-02-17T11:05:34.602Z,35.37
2018-02-17T11:08:02.902Z,30.57
2018-02-17T11:10:31.189Z,27.50
2018-02-17T11:13:03.077Z,26.00
2018-02-17T11:15:31.366Z,36.67
2018-02-17T11:17:59.704Z,31.40
2018-02-17T11:20:28.002Z,30.60
2018-02-17T11:22:56.599Z,27.90
2018-02-17T11:25:24.938Z,36.17
2018-02-17T11:27:53.593Z,37.00
2018-02-17T11:30:21.909Z,28.63
2018-02-17T11:32:50.212Z,30.40
2018-02-17T11:35:19.897Z,29.67
2018-02-17T11:37:48.934Z,30.23
2018-02-17T11:40:17.245Z,28.20
2018-02-17T11:42:45.520Z,28.43
2018-02-17T11:45:14.938Z,24.57
2018-02-17T11:47:43.342Z,26.97
2018-02-17T11:50:11.626Z,31.33
2018-02-17T11:52:39.939Z,25.80
2018-02-17T11:55:08.210Z,31.73
2018-02-17T11:57:36.525Z,31.63
2018-02-17T12:00:05.582Z,34.33
2018-02-17T12:02:33.992Z,17.50
2018-02-17T12:05:03.082Z,24.27
2018-02-17T12:07:33.593Z,28.90
2018-02-17T12:10:01.946Z,23.03
2018-02-17T12:12:31.237Z,32.73
2018-02-17T12:15:00.358Z,25.87
2018-02-17T12:17:29.290Z,25.10
2018-02-17T12:19:58.483Z,27.80
2018-02-17T12:22:27.646Z,25.17
2018-02-17T12:24:55.963Z,28.20
2018-02-17T12:27:24.241Z,24.83
2018-02-17T12:29:52.572Z,24.30
2018-02-17T12:32:20.878Z,31.07
2018-02-17T12:34:49.189Z,29.77
2018-02-17T12:37:18.246Z,34.40
2018-02-17T12:39:47.603Z,26.60
2018-02-17T12:42:16.781Z,24.47
2018-02-17T12:44:45.098Z,31.47
2018-02-17T12:47:14.810Z,28.20
2018-02-17T12:49:43.163Z,27.80
2018-02-17T12:52:11.474Z,19.40
2018-02-17T12:54:39.746Z,25.20
2018-02-17T12:57:08.051Z,26.70
2018-02-17T12:59:36.415Z,29.73
2018-02-17T13:02:05.056Z,24.23
2018-02-17T13:04:34.097Z,24.27
2018-02-17T13:07:02.402Z,23.93
2018-02-17T13:09:30.695Z,26.37
2018-02-17T13:11:58.981Z,27.07
2018-02-17T13:14:27.300Z,24.00
2018-02-17T13:16:55.577Z,23.23
2018-02-17T13:19:24.611Z,24.50
2018-02-17T13:21:52.879Z,28.50
2018-02-17T13:24:21.152Z,20.00
2018-02-17T13:26:49.462Z,25.90
2018-02-17T13:29:18.522Z,22.73
2018-02-17T13:31:46.832Z,28.57
2018-02-17T13:34:16.202Z,24.23
2018-02-17T13:36:44.595Z,25.00
2018-02-17T13:39:12.859Z,24.73
2018-02-17T13:41:41.170Z,17.87
2018-02-17T13:44:10.345Z,16.80
2018-02-17T13:46:38.943Z,21.80
2018-02-17T13:49:07.234Z,22.57
2018-02-17T13:51:35.507Z,21.40
2018-02-17T13:54:03.812Z,21.00
2018-02-17T13:56:32.081Z,15.93
2018-02-17T13:59:01.165Z,19.83
2018-02-17T14:01:29.459Z,16.87
2018-02-17T14:03:58.525Z,15.40
2018-02-17T14:06:26.802Z,18.33
2018-02-17T14:08:56.211Z,21.27
2018-02-17T14:11:24.513Z,20.53
2018-02-17T14:13:53.662Z,23.50
2018-02-17T14:16:21.950Z,19.07
2018-02-17T14:18:50.232Z,20.70
2018-02-17T14:21:18.806Z,16.50
2018-02-17T14:23:47.106Z,19.43
2018-02-17T14:26:15.449Z,19.40
2018-02-17T14:28:43.747Z,15.63
2018-02-17T14:31:12.045Z,19.83
2018-02-17T14:33:40.371Z,16.20
2018-02-17T14:36:08.695Z,21.13
2018-02-17T14:38:37.253Z,13.60
2018-02-17T14:41:05.575Z,18.80
2018-02-17T14:43:34.622Z,18.47
2018-02-17T14:46:02.933Z,16.70
2018-02-17T14:48:31.243Z,14.17
2018-02-17T14:51:00.306Z,13.50
2018-02-17T14:53:28.620Z,26.77
2018-02-17T14:55:56.912Z,16.33
2018-02-17T14:58:25.218Z,18.37
2018-02-17T15:00:53.513Z,22.40
2018-02-17T15:03:21.782Z,15.10
2018-02-17T15:05:50.797Z,13.40
2018-02-17T15:08:19.070Z,13.73
2018-02-17T15:10:47.352Z,26.33
2018-02-17T15:13:15.650Z,15.27
2018-02-17T15:15:43.966Z,13.23
2018-02-17T15:18:13.032Z,17.13
2018-02-17T15:20:41.334Z,10.70
2018-02-17T15:23:09.620Z,18.87
2018-02-17T15:25:38.269Z,16.37
2018-02-17T15:28:06.951Z,14.43
2018-02-17T15:30:38.024Z,12.63
2018-02-17T15:33:07.810Z,14.43
2018-02-17T15:35:36.865Z,18.83
2018-02-17T15:38:05.529Z,14.43
2018-02-17T15:40:35.598Z,20.57
2018-02-17T15:43:03.994Z,24.40
2018-02-17T15:45:32.346Z,22.47
2018-02-17T15:48:00.648Z,20.37
2018-02-17T15:50:29.723Z,18.60
2018-02-17T15:52:58.061Z,21.53
2018-02-17T15:55:26.838Z,22.80
2018-02-17T15:57:55.193Z,20.00
2018-02-17T16:00:23.452Z,18.20
2018-02-17T16:02:51.769Z,29.73
2018-02-17T16:05:20.860Z,20.03
2018-02-17T16:07:49.258Z,19.80
2018-02-17T16:10:17.574Z,17.33
2018-02-17T16:12:45.972Z,22.00
2018-02-17T16:15:14.249Z,27.23
2018-02-17T16:17:42.572Z,25.57
2018-02-17T16:20:11.627Z,19.10
2018-02-17T16:22:40.956Z,19.93
2018-02-17T16:25:09.240Z,24.10
2018-02-17T16:27:37.572Z,25.90
2018-02-17T16:30:05.916Z,21.43
2018-02-17T16:32:34.218Z,27.10
2018-02-17T16:35:02.563Z,23.33
2018-02-17T16:37:31.756Z,26.60
2018-02-17T16:40:00.151Z,22.90
2018-02-17T16:42:28.696Z,29.27
2018-02-17T16:44:58.093Z,24.77
2018-02-17T16:47:27.157Z,28.27
2018-02-17T16:49:55.474Z,34.30
2018-02-17T16:52:24.561Z,37.30
2018-02-17T16:54:52.841Z,30.67
2018-02-17T16:57:21.966Z,32.50
2018-02-17T16:59:50.261Z,39.50
2018-02-17T17:02:19.008Z,31.67
2018-02-17T17:04:48.081Z,24.13
2018-02-17T17:07:16.340Z,24.40
2018-02-17T17:09:44.798Z,28.47
2018-02-17T17:12:13.095Z,26.17
2018-02-17T17:14:41.416Z,18.67
2018-02-17T17:17:10.471Z,20.77
2018-02-17T17:19:38.786Z,29.30
2018-02-17T17:22:07.854Z,23.93
2018-02-17T17:24:36.590Z,28.47
2018-02-17T17:27:04.938Z,24.30
2018-02-17T17:29:33.258Z,27.53
2018-02-17T17:32:01.580Z,27.43
2018-02-17T17:34:29.867Z,28.17
2018-02-17T17:36:59.105Z,30.77
2018-02-17T17:39:27.488Z,35.27
2018-02-17T17:41:55.873Z,30.90
2018-02-17T17:44:24.141Z,28.50
2018-02-17T17:46:52.797Z,32.03
2018-02-17T17:49:21.103Z,31.33
2018-02-17T17:51:50.154Z,39.40
2018-02-17T17:54:18.463Z,30.00
2018-02-17T17:56:47.567Z,29.30
2018-02-17T17:59:15.860Z,30.93
2018-02-17T18:01:44.181Z,41.83
2018-02-17T18:04:12.506Z,45.57
2018-02-17T18:06:41.595Z,49.13
2018-02-17T18:09:10.686Z,43.40
2018-02-17T18:11:39.018Z,37.40
2018-02-17T18:14:07.303Z,32.97
2018-02-17T18:16:35.639Z,33.03
2018-02-17T18:19:04.810Z,39.07
2018-02-17T18:21:33.117Z,29.33
2018-02-17T18:24:02.160Z,30.00
2018-02-17T18:26:30.903Z,36.83
2018-02-17T18:28:59.971Z,29.13
2018-02-17T18:31:28.242Z,23.40
2018-02-17T18:33:56.579Z,26.23
2018-02-17T18:36:24.904Z,25.07
2018-02-17T18:38:53.216Z,29.13
2018-02-17T18:41:21.534Z,28.60
2018-02-17T18:43:50.119Z,25.00
2018-02-17T18:46:18.409Z,35.63
2018-02-17T18:48:47.537Z,24.20
2018-02-17T18:51:15.865Z,30.10
2018-02-17T18:53:44.208Z,29.20
2018-02-17T18:56:13.604Z,25.67
2018-02-17T18:58:41.963Z,28.00
2018-02-17T19:01:10.274Z,41.13
2018-02-17T19:03:39.616Z,30.73
2018-02-17T19:06:07.889Z,41.43
2018-02-17T19:08:36.229Z,29.87
2018-02-17T19:11:04.522Z,32.43
2018-02-17T19:13:32.850Z,37.80
2018-02-17T19:16:01.134Z,30.87
2018-02-17T19:18:29.743Z,31.43
2018-02-17T19:20:59.052Z,31.67
2018-02-17T19:23:28.083Z,29.80
2018-02-17T19:25:56.497Z,28.57
2018-02-17T19:28:24.847Z,28.30
2018-02-17T19:30:53.170Z,31.33
2018-02-17T19:33:21.453Z,28.73
2018-02-17T19:35:50.534Z,27.63
2018-02-17T19:38:18.802Z,28.50
2018-02-17T19:40:47.415Z,24.20
2018-02-17T19:43:16.472Z,32.30
2018-02-17T19:45:44.822Z,27.47
2018-02-17T19:48:13.119Z,30.93
2018-02-17T19:50:41.450Z,28.60
2018-02-17T19:53:10.569Z,32.00
2018-02-17T19:55:39.626Z,31.07
2018-02-17T19:58:07.921Z,33.73
2018-02-17T20:00:36.237Z,33.10
2018-02-17T20:03:04.873Z,38.57
2018-02-17T20:05:33.957Z,22.53
2018-02-17T20:08:02.317Z,22.20
2018-02-17T20:10:30.862Z,35.37
2018-02-17T20:12:59.175Z,27.20
2018-02-17T20:15:28.274Z,26.13
2018-02-17T20:17:56.583Z,22.77
2018-02-17T20:20:24.902Z,26.03
2018-02-17T20:22:53.211Z,29.17
2018-02-17T20:25:21.803Z,30.90
2018-02-17T20:27:50.122Z,21.77
2018-02-17T20:30:19.212Z,27.00
2018-02-17T20:32:48.314Z,21.00
2018-02-17T20:35:17.376Z,32.80
2018-02-17T20:37:46.126Z,25.90
2018-02-17T20:40:14.459Z,22.90
2018-02-17T20:42:43.075Z,24.07
2018-02-17T20:45:11.413Z,21.00
2018-02-17T20:47:39.770Z,30.00
2018-02-17T20:50:08.091Z,21.97
2018-02-17T20:52:37.173Z,26.37
2018-02-17T20:55:06.567Z,25.70
2018-02-17T20:57:35.673Z,28.23
2018-02-17T21:00:04.077Z,22.10
2018-02-17T21:02:33.843Z,31.98
2018-02-17T21:05:02.515Z,35.73
2018-02-17T21:07:30.807Z,34.67
2018-02-17T21:09:59.098Z,49.17
2018-02-17T21:12:27.425Z,29.63
2018-02-17T21:14:55.766Z,23.00
2018-02-17T21:17:24.105Z,31.47
2018-02-17T21:19:52.395Z,26.23
2018-02-17T21:22:21.128Z,28.80
2018-02-17T21:24:49.406Z,21.00
2018-02-17T21:27:18.442Z,21.17
2018-02-17T21:29:46.760Z,25.40
2018-02-17T21:32:15.073Z,18.77
2018-02-17T21:34:44.142Z,19.00
2018-02-17T21:37:12.421Z,24.63
2018-02-17T21:39:40.731Z,26.30
2018-02-17T21:42:09.028Z,28.17
2018-02-17T21:44:40.440Z,22.50
2018-02-17T21:47:09.497Z,21.73
2018-02-17T21:49:37.806Z,21.60
2018-02-17T21:52:06.907Z,24.93
2018-02-17T21:54:35.962Z,24.93
2018-02-17T21:57:04.273Z,24.57
2018-02-17T21:59:32.561Z,18.97
2018-02-17T22:02:01.670Z,21.47
2018-02-17T22:04:30.714Z,17.23
2018-02-17T22:06:59.288Z,26.13
2018-02-17T22:09:27.602Z,18.43
2018-02-17T22:11:55.879Z,19.00
2018-02-17T22:14:24.203Z,23.63
2018-02-17T22:16:52.496Z,18.00
2018-02-17T22:19:21.045Z,21.40
2018-02-17T22:21:49.320Z,21.10
2018-02-17T22:24:18.352Z,19.20
2018-02-17T22:26:47.419Z,25.27
2018-02-17T22:29:16.470Z,22.17
2018-02-17T22:31:44.779Z,21.23
2018-02-17T22:34:13.056Z,19.17
2018-02-17T22:36:41.366Z,17.10
2018-02-17T22:39:09.643Z,18.90
2018-02-17T22:41:38.218Z,15.50
2018-02-17T22:44:07.246Z,15.47
2018-02-17T22:46:35.579Z,14.97
2018-02-17T22:49:03.868Z,18.20
2018-02-17T22:51:32.162Z,27.73
2018-02-17T22:54:00.478Z,19.27
2018-02-17T22:56:28.783Z,14.27
2018-02-17T22:58:57.085Z,14.83
2018-02-17T23:01:25.366Z,15.50
2018-02-17T23:03:53.702Z,19.23
2018-02-17T23:06:21.962Z,23.13
2018-02-17T23:08:50.568Z,21.67
2018-02-17T23:11:18.854Z,13.30
2018-02-17T23:13:47.150Z,18.37
2018-02-17T23:16:15.445Z,17.97
2018-02-17T23:18:43.728Z,13.53
2018-02-17T23:21:12.018Z,13.83
2018-02-17T23:23:40.320Z,14.27
2018-02-17T23:26:08.610Z,18.10
2018-02-17T23:28:36.940Z,19.20
2018-02-17T23:31:05.612Z,12.30
2018-02-17T23:33:34.730Z,16.73
2018-02-17T23:36:02.994Z,11.33
2018-02-17T23:38:31.305Z,16.73
2018-02-17T23:40:59.565Z,14.50
2018-02-17T23:43:27.895Z,20.67
2018-02-17T23:45:56.174Z,18.60
2018-02-17T23:48:24.473Z,14.13
2018-02-17T23:50:52.766Z,15.20
2018-02-17T23:53:21.520Z,16.50
2018-02-17T23:56:05.248Z,15.33
2018-02-17T23:58:33.833Z,15.30
